createdAt,value
2022-09-24T00:01:40.615Z,10.29
2022-09-24T00:04:13.166Z,10.26
2022-09-24T00:06:47.998Z,10.24
2022-09-24T00:09:22.246Z,10.24
2022-09-24T00:11:52.785Z,10.26
2022-09-24T00:14:20.504Z,10.26
2022-09-24T00:16:47.818Z,10.21
2022-09-24T00:19:15.311Z,10.24
2022-09-24T00:21:43.653Z,10.22
2022-09-24T00:24:34.314Z,10.20
2022-09-24T00:27:04.104Z,10.19
2022-09-24T00:29:34.361Z,10.18
2022-09-24T00:32:03.278Z,10.21
2022-09-24T00:34:30.727Z,10.16
2022-09-24T00:36:57.922Z,10.14
2022-09-24T00:39:25.306Z,10.09
2022-09-24T00:41:52.726Z,10.07
2022-09-24T00:44:55.053Z,9.94
2022-09-24T00:47:46.016Z,9.87
2022-09-24T00:50:25.398Z,9.83
2022-09-24T00:53:07.501Z,9.78
2022-09-24T00:55:37.685Z,9.74
2022-09-24T00:58:09.473Z,9.63
2022-09-24T01:00:44.764Z,9.57
2022-09-24T01:03:21.508Z,9.50
2022-09-24T01:05:51.086Z,9.44
2022-09-24T01:08:21.171Z,9.43
2022-09-24T01:11:16.334Z,9.35
2022-09-24T01:14:27.079Z,9.31
2022-09-24T01:17:07.068Z,9.27
2022-09-24T01:19:47.237Z,9.18
2022-09-24T01:22:41.202Z,9.12
2022-09-24T01:25:37.964Z,9.06
2022-09-24T01:28:38.387Z,9.00
2022-09-24T01:31:41.196Z,8.96
2022-09-24T01:34:12.479Z,8.92
2022-09-24T01:36:43.049Z,8.89
2022-09-24T01:39:14.567Z,8.89
2022-09-24T01:41:44.831Z,8.88
2022-09-24T01:44:13.176Z,8.78
2022-09-24T01:46:42.319Z,8.81
2022-09-24T01:49:10.327Z,8.84
2022-09-24T01:51:58.889Z,8.81
2022-09-24T01:54:37.142Z,8.80
2022-09-24T01:57:30.122Z,8.84
2022-09-24T02:00:10.031Z,8.77
2022-09-24T02:03:02.537Z,8.72
2022-09-24T02:05:41.801Z,8.78
2022-09-24T02:08:11.957Z,8.76
2022-09-24T02:10:57.869Z,8.72
2022-09-24T02:13:34.159Z,8.74
2022-09-24T02:16:05.979Z,8.73
2022-09-24T02:18:41.773Z,8.67
2022-09-24T02:21:15.685Z,8.75
2022-09-24T02:24:03.334Z,8.77
2022-09-24T02:26:30.739Z,8.78
2022-09-24T02:28:59.292Z,8.75
2022-09-24T02:31:32.417Z,8.73
2022-09-24T02:34:20.701Z,8.74
2022-09-24T02:36:54.695Z,8.69
2022-09-24T02:39:22.299Z,8.67
2022-09-24T02:41:52.427Z,8.69
2022-09-24T02:44:20.541Z,8.70
2022-09-24T02:46:48.357Z,8.73
2022-09-24T02:49:15.923Z,8.74
2022-09-24T02:51:44.958Z,8.75
2022-09-24T02:54:12.901Z,8.77
2022-09-24T02:56:41.157Z,8.77
2022-09-24T02:59:08.827Z,8.73
2022-09-24T03:01:36.853Z,8.71
2022-09-24T03:04:04.792Z,8.67
2022-09-24T03:06:32.888Z,8.66
2022-09-24T03:09:02.363Z,8.60
2022-09-24T03:11:31.592Z,8.58
2022-09-24T03:13:59.489Z,8.58
2022-09-24T03:16:27.027Z,8.56
2022-09-24T03:18:54.285Z,8.55
2022-09-24T03:21:22.713Z,8.53
2022-09-24T03:23:50.475Z,8.48
2022-09-24T03:26:18.443Z,8.55
2022-09-24T03:28:46.153Z,8.51
2022-09-24T03:31:14.151Z,8.50
2022-09-24T03:33:49.110Z,8.49
2022-09-24T03:36:26.891Z,8.50
2022-09-24T03:38:56.914Z,8.53
2022-09-24T03:41:30.036Z,8.51
2022-09-24T03:43:57.269Z,8.47
2022-09-24T03:46:30.288Z,8.45
2022-09-24T03:48:59.476Z,8.49
2022-09-24T03:51:26.699Z,8.50
2022-09-24T03:53:53.933Z,8.52
2022-09-24T03:56:21.316Z,8.54
2022-09-24T03:58:48.544Z,8.57
2022-09-24T04:01:21.385Z,8.58
2022-09-24T04:03:50.655Z,8.58
2022-09-24T04:06:23.346Z,8.49
2022-09-24T04:08:53.346Z,8.47
2022-09-24T04:11:20.576Z,8.39
2022-09-24T04:13:47.821Z,8.37
2022-09-24T04:16:15.289Z,8.37
2022-09-24T04:18:43.063Z,8.36
2022-09-24T04:21:10.675Z,8.38
2022-09-24T04:23:38.122Z,8.34
2022-09-24T04:26:05.357Z,8.33
2022-09-24T04:28:33.086Z,8.35
2022-09-24T04:31:00.489Z,8.37
2022-09-24T04:33:27.877Z,8.36
2022-09-24T04:35:55.008Z,8.34
2022-09-24T04:38:22.403Z,8.34
2022-09-24T04:40:49.755Z,8.36
2022-09-24T04:43:19.287Z,8.39
2022-09-24T04:45:47.116Z,8.43
2022-09-24T04:48:14.519Z,8.46
2022-09-24T04:50:45.865Z,8.50
2022-09-24T04:53:14.854Z,8.51
2022-09-24T04:55:42.211Z,8.57
2022-09-24T04:58:10.468Z,8.62
2022-09-24T05:00:37.974Z,8.72
2022-09-24T05:03:05.694Z,8.81
2022-09-24T05:05:34.565Z,8.97
2022-09-24T05:08:03.165Z,9.08
2022-09-24T05:10:33.208Z,9.13
2022-09-24T05:13:02.324Z,9.24
2022-09-24T05:15:30.344Z,9.30
2022-09-24T05:17:58.204Z,9.39
2022-09-24T05:20:25.807Z,9.48
2022-09-24T05:22:53.263Z,9.57
2022-09-24T05:25:22.668Z,9.63
2022-09-24T05:27:55.930Z,9.68
2022-09-24T05:30:25.997Z,9.74
2022-09-24T05:32:53.366Z,9.79
2022-09-24T05:35:23.970Z,9.88
2022-09-24T05:37:53.840Z,10.00
2022-09-24T05:40:40.123Z,10.05
2022-09-24T05:43:07.695Z,10.11
2022-09-24T05:45:34.930Z,10.20
2022-09-24T05:48:02.507Z,10.26
2022-09-24T05:50:30.210Z,10.39
2022-09-24T05:52:57.431Z,10.48
2022-09-24T05:55:28.745Z,10.57
2022-09-24T05:58:07.593Z,10.67
2022-09-24T06:00:36.294Z,10.79
2022-09-24T06:03:17.163Z,10.89
2022-09-24T06:05:50.382Z,10.99
2022-09-24T06:08:20.716Z,11.13
2022-09-24T06:10:48.950Z,11.25
2022-09-24T06:13:21.004Z,11.32
2022-09-24T06:15:48.488Z,11.47
2022-09-24T06:18:16.007Z,11.61
2022-09-24T06:20:44.508Z,11.70
2022-09-24T06:23:11.857Z,11.82
2022-09-24T06:25:39.009Z,11.98
2022-09-24T06:28:06.254Z,11.97
2022-09-24T06:30:40.154Z,12.20
2022-09-24T06:33:11.738Z,12.50
2022-09-24T06:35:42.907Z,12.70
2022-09-24T06:38:16.806Z,12.91
2022-09-24T06:40:47.180Z,13.07
2022-09-24T06:43:15.588Z,13.27
2022-09-24T06:45:43.189Z,13.30
2022-09-24T06:48:14.979Z,13.48
2022-09-24T06:50:45.545Z,13.66
2022-09-24T06:53:13.262Z,13.83
2022-09-24T06:55:42.015Z,14.02
2022-09-24T06:58:13.349Z,14.23
2022-09-24T07:00:41.884Z,14.54
2022-09-24T07:03:18.295Z,14.91
2022-09-24T07:05:45.866Z,15.32
2022-09-24T07:08:13.116Z,15.65
2022-09-24T07:10:52.679Z,15.96
2022-09-24T07:13:21.552Z,16.31
2022-09-24T07:15:51.400Z,16.91
2022-09-24T07:18:23.658Z,17.29
2022-09-24T07:20:56.563Z,17.39
2022-09-24T07:23:24.482Z,17.70
2022-09-24T07:25:57.748Z,17.96
2022-09-24T07:28:25.688Z,18.11
2022-09-24T07:30:59.322Z,18.34
2022-09-24T07:33:26.858Z,18.46
2022-09-24T07:35:54.301Z,18.52
2022-09-24T07:38:22.460Z,18.43
2022-09-24T07:40:50.006Z,18.40
2022-09-24T07:43:21.425Z,18.52
2022-09-24T07:45:49.177Z,18.62
2022-09-24T07:48:16.612Z,18.57
2022-09-24T07:50:44.089Z,18.32
2022-09-24T07:53:12.788Z,18.48
2022-09-24T07:55:40.912Z,18.84
2022-09-24T07:58:13.960Z,19.25
2022-09-24T08:00:41.831Z,19.59
2022-09-24T08:03:09.109Z,19.62
2022-09-24T08:05:43.035Z,19.72
2022-09-24T08:08:10.171Z,19.80
2022-09-24T08:10:38.658Z,19.75
2022-09-24T08:13:05.898Z,19.74
2022-09-24T08:15:33.310Z,19.82
2022-09-24T08:18:04.932Z,19.81
2022-09-24T08:20:33.725Z,19.69
2022-09-24T08:23:02.891Z,19.65
2022-09-24T08:25:31.319Z,19.81
2022-09-24T08:28:12.314Z,20.06
2022-09-24T08:30:40.531Z,20.23
2022-09-24T08:33:08.497Z,20.05
2022-09-24T08:35:36.769Z,19.99
2022-09-24T08:38:04.381Z,20.25
2022-09-24T08:41:21.453Z,20.42
2022-09-24T08:44:44.142Z,20.11
2022-09-24T08:47:43.142Z,19.81
2022-09-24T08:50:23.500Z,19.63
2022-09-24T08:53:15.331Z,19.61
2022-09-24T08:55:54.374Z,19.78
2022-09-24T08:58:52.415Z,19.97
2022-09-24T09:01:48.954Z,20.32
2022-09-24T09:04:44.025Z,20.71
2022-09-24T09:07:26.398Z,20.69
2022-09-24T09:10:08.215Z,20.41
2022-09-24T09:12:42.377Z,20.16
2022-09-24T09:15:24.571Z,20.37
2022-09-24T09:18:01.629Z,20.96
2022-09-24T09:20:44.755Z,21.36
2022-09-24T09:23:47.105Z,21.39
2022-09-24T09:26:15.224Z,21.57
2022-09-24T09:28:42.775Z,21.92
2022-09-24T09:31:59.994Z,22.49
2022-09-24T09:34:49.015Z,23.44
2022-09-24T09:37:29.266Z,23.94
2022-09-24T09:40:31.625Z,24.41
2022-09-24T09:43:11.662Z,24.63
2022-09-24T09:46:18.624Z,25.17
2022-09-24T09:48:56.453Z,25.26
2022-09-24T09:51:26.588Z,24.94
2022-09-24T09:54:02.674Z,24.71
2022-09-24T09:56:38.381Z,24.68
2022-09-24T09:59:15.244Z,24.91
2022-09-24T10:01:46.950Z,24.80
2022-09-24T10:04:39.654Z,23.87
2022-09-24T10:07:14.258Z,23.32
2022-09-24T10:09:43.999Z,22.97
2022-09-24T10:12:24.437Z,22.81
2022-09-24T10:15:21.028Z,22.82
2022-09-24T10:17:53.316Z,23.03
2022-09-24T10:20:32.808Z,23.07
2022-09-24T10:23:07.533Z,22.71
2022-09-24T10:25:37.728Z,22.58
2022-09-24T10:28:36.012Z,22.59
2022-09-24T10:31:19.320Z,22.50
2022-09-24T10:33:52.330Z,22.78
2022-09-24T10:36:30.156Z,23.16
2022-09-24T10:39:07.692Z,24.29
2022-09-24T10:41:36.009Z,25.48
2022-09-24T10:44:11.986Z,27.20
2022-09-24T10:46:44.959Z,29.44
2022-09-24T10:49:58.103Z,32.24
2022-09-24T10:52:40.259Z,35.31
2022-09-24T10:55:33.908Z,34.58
2022-09-24T10:58:44.621Z,35.56
2022-09-24T11:01:32.521Z,36.87
2022-09-24T11:04:38.634Z,35.13
2022-09-24T11:07:48.337Z,33.50
2022-09-24T11:11:16.584Z,32.78
2022-09-24T11:14:17.180Z,32.71
2022-09-24T11:17:00.247Z,32.61
2022-09-24T11:20:04.834Z,32.07
2022-09-24T11:22:55.319Z,32.45
2022-09-24T11:25:47.559Z,34.50
2022-09-24T11:28:56.288Z,36.43
2022-09-24T11:31:47.740Z,39.67
2022-09-24T11:34:51.064Z,39.37
2022-09-24T11:37:44.290Z,41.15
2022-09-24T11:40:17.140Z,41.16
2022-09-24T11:43:18.547Z,39.73
2022-09-24T11:46:03.921Z,40.20
2022-09-24T11:48:43.178Z,40.45
2022-09-24T11:51:16.822Z,41.63
2022-09-24T11:53:59.004Z,38.42
2022-09-24T11:56:40.488Z,36.24
2022-09-24T11:59:29.255Z,33.91
2022-09-24T12:02:19.393Z,32.31
2022-09-24T12:05:09.419Z,31.07
2022-09-24T12:07:45.386Z,29.98
2022-09-24T12:10:38.683Z,29.36
2022-09-24T12:13:42.463Z,29.00
2022-09-24T12:16:20.303Z,28.50
2022-09-24T12:19:17.860Z,28.35
2022-09-24T12:21:50.637Z,28.26
2022-09-24T12:24:23.569Z,30.61
2022-09-24T12:26:53.868Z,31.44
2022-09-24T12:30:03.236Z,34.32
2022-09-24T12:33:01.358Z,34.66
2022-09-24T12:35:28.488Z,33.84
2022-09-24T12:38:13.109Z,32.79
2022-09-24T12:40:40.257Z,32.70
2022-09-24T12:43:35.480Z,32.85
2022-09-24T12:46:06.928Z,31.66
2022-09-24T12:48:38.919Z,31.51
2022-09-24T12:51:10.444Z,37.54
2022-09-24T12:53:42.441Z,41.66
2022-09-24T12:56:11.937Z,44.55
2022-09-24T12:58:45.277Z,46.44
2022-09-24T13:01:29.016Z,47.58
2022-09-24T13:04:14.353Z,48.93
2022-09-24T13:06:48.278Z,49.56
2022-09-24T13:09:41.304Z,50.14
2022-09-24T13:12:18.127Z,50.87
2022-09-24T13:15:02.786Z,49.78
2022-09-24T13:17:36.074Z,50.69
2022-09-24T13:20:17.224Z,51.04
2022-09-24T13:23:20.530Z,51.99
2022-09-24T13:26:05.117Z,52.19
2022-09-24T13:28:51.473Z,51.17
2022-09-24T13:31:22.159Z,49.48
2022-09-24T13:34:00.803Z,49.76
2022-09-24T13:36:59.156Z,50.53
2022-09-24T13:39:50.546Z,50.14
2022-09-24T13:42:35.873Z,49.83
2022-09-24T13:45:11.563Z,50.69
2022-09-24T13:47:51.224Z,46.38
2022-09-24T13:50:50.014Z,41.62
2022-09-24T13:53:37.019Z,42.92
2022-09-24T13:56:14.341Z,41.71
2022-09-24T13:58:43.863Z,41.49
2022-09-24T14:01:26.109Z,42.32
2022-09-24T14:04:01.575Z,41.89
2022-09-24T14:06:45.700Z,40.02
2022-09-24T14:09:34.959Z,40.25
2022-09-24T14:12:15.501Z,40.20
2022-09-24T14:14:52.013Z,40.44
2022-09-24T14:17:19.911Z,37.43
2022-09-24T14:19:54.022Z,37.60
2022-09-24T14:22:36.636Z,38.41
2022-09-24T14:25:10.678Z,36.52
2022-09-24T14:27:45.518Z,36.32
2022-09-24T14:30:23.415Z,35.31
2022-09-24T14:33:16.913Z,33.87
2022-09-24T14:35:52.161Z,34.00
2022-09-24T14:38:29.720Z,32.77
2022-09-24T14:41:19.939Z,31.88
2022-09-24T14:43:55.235Z,32.22
2022-09-24T14:46:32.658Z,33.25
2022-09-24T14:49:17.603Z,32.71
2022-09-24T14:52:04.249Z,31.58
2022-09-24T14:54:40.306Z,30.48
2022-09-24T14:57:19.951Z,29.47
2022-09-24T14:59:47.799Z,28.55
2022-09-24T15:02:37.270Z,27.55
2022-09-24T15:05:08.753Z,26.87
2022-09-24T15:07:36.521Z,26.05
2022-09-24T15:10:06.567Z,25.58
2022-09-24T15:12:40.994Z,25.19
2022-09-24T15:15:17.418Z,24.63
2022-09-24T15:17:47.471Z,24.13
2022-09-24T15:20:15.331Z,23.78
2022-09-24T15:22:43.063Z,23.50
2022-09-24T15:25:14.559Z,23.25
2022-09-24T15:27:43.009Z,22.93
2022-09-24T15:30:20.749Z,22.59
2022-09-24T15:32:52.527Z,22.37
2022-09-24T15:35:19.791Z,22.17
2022-09-24T15:37:49.538Z,22.05
2022-09-24T15:40:23.229Z,21.84
2022-09-24T15:42:51.844Z,21.68
2022-09-24T15:45:22.984Z,21.48
2022-09-24T15:47:52.099Z,21.24
2022-09-24T15:50:22.766Z,21.05
2022-09-24T15:52:59.860Z,20.71
2022-09-24T15:55:29.040Z,20.47
2022-09-24T15:57:56.506Z,20.20
2022-09-24T16:00:25.720Z,19.93
2022-09-24T16:02:58.095Z,19.68
2022-09-24T16:05:26.202Z,19.48
2022-09-24T16:07:53.498Z,19.30
2022-09-24T16:10:21.009Z,19.16
2022-09-24T16:12:48.471Z,19.05
2022-09-24T16:15:16.798Z,18.98
2022-09-24T16:17:44.545Z,18.83
2022-09-24T16:20:11.969Z,18.67
2022-09-24T16:22:39.364Z,18.53
2022-09-24T16:25:07.258Z,18.36
2022-09-24T16:27:35.418Z,18.24
2022-09-24T16:30:06.281Z,18.07
2022-09-24T16:32:33.978Z,17.97
2022-09-24T16:35:01.664Z,17.80
2022-09-24T16:37:29.345Z,17.62
2022-09-24T16:39:56.642Z,17.49
2022-09-24T16:42:26.442Z,17.38
2022-09-24T16:44:53.702Z,17.23
2022-09-24T16:47:21.211Z,17.18
2022-09-24T16:49:48.642Z,17.03
2022-09-24T16:52:15.897Z,16.96
2022-09-24T16:54:43.603Z,16.87
2022-09-24T16:57:11.089Z,16.86
2022-09-24T16:59:38.335Z,16.76
2022-09-24T17:02:08.550Z,16.64
2022-09-24T17:04:36.003Z,16.50
2022-09-24T17:07:03.228Z,16.43
2022-09-24T17:09:48.847Z,16.31
2022-09-24T17:12:16.302Z,16.16
2022-09-24T17:14:43.707Z,16.11
2022-09-24T17:17:10.894Z,16.06
2022-09-24T17:19:38.320Z,16.07
2022-09-24T17:22:06.012Z,16.03
2022-09-24T17:24:36.032Z,16.05
2022-09-24T17:27:03.530Z,16.07
2022-09-24T17:29:31.876Z,16.03
2022-09-24T17:31:59.484Z,15.86
2022-09-24T17:34:27.657Z,15.83
2022-09-24T17:36:54.980Z,15.66
2022-09-24T17:39:22.953Z,15.63
2022-09-24T17:41:50.376Z,15.57
2022-09-24T17:44:18.062Z,15.46
2022-09-24T17:46:45.389Z,15.30
2022-09-24T17:49:12.978Z,15.36
2022-09-24T17:51:40.182Z,15.36
2022-09-24T17:54:14.653Z,15.32
2022-09-24T17:56:42.652Z,15.36
2022-09-24T17:59:13.618Z,15.40
2022-09-24T18:01:44.555Z,15.44
2022-09-24T18:04:22.635Z,15.43
2022-09-24T18:06:50.489Z,15.41
2022-09-24T18:09:19.162Z,15.30
2022-09-24T18:11:52.714Z,15.19
2022-09-24T18:14:23.057Z,15.08
2022-09-24T18:16:52.171Z,15.03
2022-09-24T18:19:19.714Z,15.00
2022-09-24T18:21:49.323Z,14.93
2022-09-24T18:24:17.474Z,14.88
2022-09-24T18:26:48.376Z,14.88
2022-09-24T18:29:19.435Z,14.84
2022-09-24T18:31:46.859Z,14.80
2022-09-24T18:34:16.261Z,14.81
2022-09-24T18:36:45.198Z,14.75
2022-09-24T18:39:21.770Z,14.73
2022-09-24T18:41:51.628Z,14.64
2022-09-24T18:44:19.836Z,14.62
2022-09-24T18:46:47.162Z,14.58
2022-09-24T18:49:15.001Z,14.57
2022-09-24T18:51:42.313Z,14.57
2022-09-24T18:54:14.542Z,14.47
2022-09-24T18:56:43.718Z,14.47
2022-09-24T18:59:14.874Z,14.48
2022-09-24T19:01:43.995Z,14.45
2022-09-24T19:04:13.463Z,14.37
2022-09-24T19:06:44.238Z,14.33
2022-09-24T19:09:17.413Z,14.36
2022-09-24T19:11:45.637Z,14.38
2022-09-24T19:14:18.554Z,14.39
2022-09-24T19:16:47.393Z,14.34
2022-09-24T19:19:16.355Z,14.38
2022-09-24T19:21:43.936Z,14.39
2022-09-24T19:24:11.759Z,14.36
2022-09-24T19:26:39.237Z,14.30
2022-09-24T19:29:06.697Z,14.33
2022-09-24T19:31:38.727Z,14.27
2022-09-24T19:34:09.085Z,14.16
2022-09-24T19:36:43.766Z,14.14
2022-09-24T19:39:15.943Z,14.15
2022-09-24T19:41:44.225Z,14.10
2022-09-24T19:44:12.321Z,14.06
2022-09-24T19:46:40.368Z,14.04
2022-09-24T19:49:07.779Z,13.96
2022-09-24T19:51:36.892Z,13.94
2022-09-24T19:54:07.802Z,13.97
2022-09-24T19:56:36.993Z,13.91
2022-09-24T19:59:05.939Z,13.85
2022-09-24T20:01:34.270Z,13.79
2022-09-24T20:04:06.479Z,13.74
2022-09-24T20:06:36.767Z,13.67
2022-09-24T20:09:04.942Z,13.67
2022-09-24T20:11:32.996Z,13.61
2022-09-24T20:14:01.409Z,13.58
2022-09-24T20:16:33.218Z,13.52
2022-09-24T20:19:02.426Z,13.47
2022-09-24T20:21:35.022Z,13.43
2022-09-24T20:24:04.475Z,13.43
2022-09-24T20:26:50.864Z,13.43
2022-09-24T20:29:19.957Z,13.37
2022-09-24T20:31:52.411Z,13.30
2022-09-24T20:34:33.387Z,13.33
2022-09-24T20:37:05.759Z,13.21
2022-09-24T20:39:33.904Z,13.22
2022-09-24T20:42:03.924Z,13.18
2022-09-24T20:44:33.719Z,13.18
2022-09-24T20:47:01.105Z,13.22
2022-09-24T20:49:30.051Z,13.16
2022-09-24T20:51:58.080Z,13.19
2022-09-24T20:54:28.234Z,13.17
2022-09-24T20:56:56.571Z,13.17
2022-09-24T20:59:26.760Z,13.12
2022-09-24T21:01:54.819Z,13.08
2022-09-24T21:04:23.593Z,13.08
2022-09-24T21:06:50.983Z,13.14
2022-09-24T21:09:18.560Z,13.12
2022-09-24T21:11:45.788Z,13.11
2022-09-24T21:14:14.770Z,13.11
2022-09-24T21:16:42.283Z,13.04
2022-09-24T21:19:10.765Z,13.05
2022-09-24T21:21:39.155Z,12.96
2022-09-24T21:24:12.240Z,12.97
2022-09-24T21:26:40.560Z,12.98
2022-09-24T21:29:18.138Z,12.93
2022-09-24T21:31:47.563Z,12.94
2022-09-24T21:34:20.979Z,12.88
2022-09-24T21:36:48.944Z,12.85
2022-09-24T21:39:23.088Z,12.79
2022-09-24T21:41:55.078Z,12.75
2022-09-24T21:44:22.950Z,12.85
2022-09-24T21:46:52.559Z,12.79
2022-09-24T21:49:20.580Z,12.72
2022-09-24T21:51:48.979Z,12.72
2022-09-24T21:54:18.627Z,12.72
2022-09-24T21:56:47.052Z,12.69
2022-09-24T21:59:34.703Z,12.61
2022-09-24T22:02:03.581Z,12.58
2022-09-24T22:04:33.226Z,12.54
2022-09-24T22:07:00.664Z,12.52
2022-09-24T22:09:28.693Z,12.45
2022-09-24T22:11:57.835Z,12.38
2022-09-24T22:14:26.362Z,12.32
2022-09-24T22:16:54.243Z,12.21
2022-09-24T22:19:22.441Z,12.09
2022-09-24T22:21:49.685Z,12.01
2022-09-24T22:24:16.990Z,12.05
2022-09-24T22:26:45.390Z,12.03
2022-09-24T22:29:13.500Z,12.01
2022-09-24T22:31:40.809Z,12.04
2022-09-24T22:34:26.851Z,12.00
2022-09-24T22:36:54.142Z,11.92
2022-09-24T22:39:21.564Z,11.90
2022-09-24T22:41:48.811Z,11.90
2022-09-24T22:44:16.117Z,11.89
2022-09-24T22:46:43.545Z,11.92
2022-09-24T22:49:11.096Z,11.95
2022-09-24T22:51:39.488Z,11.89
2022-09-24T22:54:09.717Z,11.94
2022-09-24T22:56:38.375Z,11.97
2022-09-24T22:59:06.485Z,11.89
2022-09-24T23:01:42.080Z,11.94
2022-09-24T23:04:14.989Z,11.90
2022-09-24T23:06:43.790Z,11.88
2022-09-24T23:09:11.679Z,11.79
2022-09-24T23:11:39.932Z,11.79
2022-09-24T23:14:14.432Z,11.82
2022-09-24T23:16:42.938Z,11.81
2022-09-24T23:19:19.885Z,11.81
2022-09-24T23:21:47.763Z,11.72
2022-09-24T23:24:21.905Z,11.67
2022-09-24T23:26:51.135Z,11.63
2022-09-24T23:29:18.572Z,11.65
2022-09-24T23:31:45.778Z,11.66
2022-09-24T23:34:14.364Z,11.65
2022-09-24T23:36:45.216Z,11.68
2022-09-24T23:39:12.829Z,11.60
2022-09-24T23:41:40.643Z,11.66
2022-09-24T23:44:08.113Z,11.70
2022-09-24T23:46:35.392Z,11.75
2022-09-24T23:49:02.666Z,11.73
2022-09-24T23:51:30.158Z,11.72
2022-09-24T23:53:57.596Z,11.78
2022-09-24T23:56:24.893Z,11.78
2022-09-24T23:58:52.481Z,11.80
